Time;durP1;ratioP1;P1;durP2;ratioP2;P2;SDS_P1;SDS_P2;PMS_P1;PMS_P2;Temp;Humidity;BMP_temperature;BMP_pressure;BME280_temperature;BME280_humidity;BME280_pressure;Samples;Min_cycle;Max_cycle;Signal;HPM_P1;HPM_P2
2022/03/02 00:01:20;;;;;;;17.92;3.67;;;6.10;83.50;;;;;;4786686;30;20398;-72
2022/03/02 00:03:48;;;;;;;16.40;3.60;;;6.00;83.70;;;;;;4786250;30;20486;-72
2022/03/02 00:06:16;;;;;;;18.58;4.13;;;6.00;83.90;;;;;;4788793;29;20058;-72
2022/03/02 00:08:43;;;;;;;19.90;4.30;;;6.00;84.00;;;;;;4786497;30;20051;-72
2022/03/02 00:11:11;;;;;;;19.08;3.42;;;6.00;84.00;;;;;;4786336;30;20051;-72
2022/03/02 00:13:40;;;;;;;15.85;3.40;;;6.00;84.00;;;;;;4785476;30;20047;-73
2022/03/02 00:16:08;;;;;;;16.35;3.80;;;6.00;84.10;;;;;;4798495;29;20402;-72
2022/03/02 00:18:36;;;;;;;12.30;3.47;;;6.00;84.10;;;;;;4803469;29;20077;-72
2022/03/02 00:21:03;;;;;;;16.95;3.70;;;6.00;84.20;;;;;;4803556;29;20055;-72
2022/03/02 00:23:31;;;;;;;14.65;3.38;;;6.00;84.20;;;;;;4804270;29;20059;-72
2022/03/02 00:25:59;;;;;;;12.75;3.40;;;6.00;84.30;;;;;;4818358;29;20055;-72
2022/03/02 00:28:27;;;;;;;14.65;3.92;;;5.90;84.30;;;;;;4804317;29;20409;-72
2022/03/02 00:30:55;;;;;;;17.38;4.10;;;6.00;84.30;;;;;;4802544;29;20066;-72
2022/03/02 00:33:23;;;;;;;15.88;4.05;;;6.00;84.30;;;;;;4807372;29;20062;-72
2022/03/02 00:35:51;;;;;;;18.70;4.10;;;6.00;84.30;;;;;;4788929;29;20054;-72
2022/03/02 00:38:19;;;;;;;15.02;3.60;;;6.00;84.40;;;;;;4803755;29;20051;-72
2022/03/02 00:40:47;;;;;;;14.82;3.90;;;5.90;84.50;;;;;;4804901;29;20397;-72
2022/03/02 00:43:14;;;;;;;20.08;3.78;;;6.00;84.60;;;;;;4806085;29;20054;-72
2022/03/02 00:45:42;;;;;;;14.13;3.10;;;5.90;84.70;;;;;;4806891;29;20420;-72
2022/03/02 00:48:10;;;;;;;9.73;3.35;;;5.90;84.80;;;;;;4800523;29;20047;-72
2022/03/02 00:50:39;;;;;;;12.82;3.80;;;5.90;84.90;;;;;;4789251;30;20059;-72
2022/03/02 00:53:07;;;;;;;11.82;3.33;;;5.80;84.90;;;;;;4789298;30;20066;-73
2022/03/02 00:55:36;;;;;;;13.30;3.70;;;5.80;85.00;;;;;;4788716;29;20483;-73
2022/03/02 00:58:05;;;;;;;16.33;4.32;;;5.80;85.20;;;;;;4789033;30;20066;-73
2022/03/02 01:00:33;;;;;;;11.30;4.25;;;5.80;85.40;;;;;;4796293;29;20506;-73
2022/03/02 01:03:01;;;;;;;13.38;4.90;;;5.80;85.50;;;;;;4806505;29;20379;-72
2022/03/02 01:05:29;;;;;;;10.07;4.50;;;5.70;85.50;;;;;;4802691;29;20050;-73
2022/03/02 01:07:56;;;;;;;16.90;6.00;;;5.70;85.60;;;;;;4807071;29;20410;-73
2022/03/02 01:10:24;;;;;;;16.10;6.28;;;5.70;85.70;;;;;;4820679;29;20066;-72
2022/03/02 01:12:52;;;;;;;14.68;6.47;;;5.70;85.80;;;;;;4820786;29;20105;-73
2022/03/02 01:15:20;;;;;;;14.55;6.60;;;5.70;86.00;;;;;;4805198;29;20502;-73
2022/03/02 01:17:47;;;;;;;13.48;7.40;;;5.70;86.10;;;;;;4820185;29;20494;-73
2022/03/02 01:20:15;;;;;;;14.18;6.47;;;5.60;86.10;;;;;;4806349;29;20043;-73
2022/03/02 01:22:43;;;;;;;16.77;7.15;;;5.60;86.40;;;;;;4806509;29;20086;-73
2022/03/02 01:25:10;;;;;;;20.33;8.07;;;5.60;86.50;;;;;;4806582;29;20058;-73
2022/03/02 01:27:38;;;;;;;14.85;7.90;;;5.60;86.50;;;;;;4806583;29;20445;-72
2022/03/02 01:30:08;;;;;;;18.27;8.07;;;5.60;86.60;;;;;;4806390;29;20066;-73
2022/03/02 01:32:36;;;;;;;16.20;8.20;;;5.60;86.60;;;;;;4805992;29;20081;-72
2022/03/02 01:35:05;;;;;;;14.98;7.85;;;5.60;86.80;;;;;;4804897;29;20046;-73
2022/03/02 01:37:32;;;;;;;21.00;8.32;;;5.60;86.70;;;;;;4806023;29;20058;-72
2022/03/02 01:40:00;;;;;;;19.45;8.50;;;5.60;86.90;;;;;;4805731;29;20538;-73
2022/03/02 01:42:28;;;;;;;17.10;8.15;;;5.60;86.90;;;;;;4805382;29;20054;-73
2022/03/02 01:44:55;;;;;;;14.98;8.35;;;5.60;86.90;;;;;;4804306;29;20062;-73
2022/03/02 01:47:27;;;;;;;17.38;8.88;;;5.60;87.00;;;;;;4804981;29;20062;-73
2022/03/02 01:49:55;;;;;;;18.27;8.80;;;5.60;87.00;;;;;;4791392;29;20545;-73
2022/03/02 01:52:23;;;;;;;17.80;8.43;;;5.60;87.10;;;;;;4805447;29;20070;-73
2022/03/02 01:54:51;;;;;;;15.20;8.80;;;5.70;87.10;;;;;;4819866;29;20057;-73
2022/03/02 01:57:19;;;;;;;20.63;8.38;;;5.60;87.00;;;;;;4804393;29;20066;-73
2022/03/02 01:59:47;;;;;;;16.55;8.85;;;5.70;87.10;;;;;;4805036;29;20042;-73
2022/03/02 02:02:14;;;;;;;20.73;8.23;;;5.70;87.10;;;;;;4804801;29;20416;-73
2022/03/02 02:04:42;;;;;;;17.98;9.23;;;5.70;87.10;;;;;;4805741;29;20054;-73
2022/03/02 02:07:10;;;;;;;17.77;8.50;;;5.70;87.10;;;;;;4804585;29;20417;-73
2022/03/02 02:09:39;;;;;;;17.48;8.73;;;5.70;87.10;;;;;;4805602;29;20066;-73
2022/03/02 02:12:06;;;;;;;21.15;9.23;;;5.70;87.20;;;;;;4801711;29;20062;-73
2022/03/02 02:14:34;;;;;;;16.92;8.77;;;5.70;87.20;;;;;;4804952;29;20107;-73
2022/03/02 02:17:02;;;;;;;18.75;9.15;;;5.70;87.20;;;;;;4805762;29;20058;-73
2022/03/02 02:19:29;;;;;;;21.42;9.20;;;5.70;87.20;;;;;;4805633;29;20506;-73
2022/03/02 02:21:57;;;;;;;15.43;8.73;;;5.70;87.30;;;;;;4805393;29;20054;-73
2022/03/02 02:24:25;;;;;;;17.83;9.15;;;5.70;87.40;;;;;;4804437;29;20075;-73
2022/03/02 02:26:53;;;;;;;28.95;10.18;;;5.70;87.40;;;;;;4805557;29;20046;-73
2022/03/02 02:29:23;;;;;;;19.60;8.88;;;5.70;87.40;;;;;;4805127;29;20055;-73
2022/03/02 02:31:51;;;;;;;20.05;8.98;;;5.70;87.50;;;;;;4804906;29;20054;-73
2022/03/02 02:34:19;;;;;;;17.45;8.27;;;5.70;87.50;;;;;;4820091;29;20057;-73
2022/03/02 02:36:47;;;;;;;20.23;8.85;;;5.70;87.60;;;;;;4805407;29;20042;-73
2022/03/02 02:39:15;;;;;;;20.02;8.77;;;5.70;87.60;;;;;;4804852;29;20062;-74
2022/03/02 02:41:42;;;;;;;22.15;8.68;;;5.70;87.70;;;;;;4804309;29;20051;-74
2022/03/02 02:44:10;;;;;;;15.40;8.05;;;5.70;87.70;;;;;;4804530;29;20051;-73
2022/03/02 02:46:45;;;;;;;21.40;8.90;;;5.70;87.80;;;;;;4803805;29;20058;-73
2022/03/02 02:49:12;;;;;;;18.25;8.10;;;5.70;87.80;;;;;;4801880;29;20050;-74
2022/03/02 02:51:40;;;;;;;15.32;8.10;;;5.80;87.90;;;;;;4803706;29;20505;-73
2022/03/02 02:54:07;;;;;;;13.88;6.78;;;5.70;87.90;;;;;;4819344;29;20051;-74
2022/03/02 02:56:35;;;;;;;18.42;7.15;;;5.70;88.00;;;;;;4803303;29;20051;-73
2022/03/02 02:59:04;;;;;;;12.15;6.22;;;5.80;88.00;;;;;;4803219;29;20201;-73
2022/03/02 03:01:31;;;;;;;11.18;5.97;;;5.80;88.00;;;;;;4804698;29;20058;-73
2022/03/02 03:03:59;;;;;;;13.93;6.20;;;5.80;88.00;;;;;;4803144;29;20059;-73
2022/03/02 03:06:27;;;;;;;16.58;6.13;;;5.80;88.10;;;;;;4804524;29;20055;-73
2022/03/02 03:08:54;;;;;;;9.88;5.72;;;5.80;88.10;;;;;;4803440;29;20055;-73
2022/03/02 03:11:22;;;;;;;9.57;5.65;;;5.80;88.10;;;;;;4803178;29;20050;-73
2022/03/02 03:13:49;;;;;;;13.23;5.90;;;5.80;88.10;;;;;;4803654;29;20395;-73
2022/03/02 03:16:17;;;;;;;10.00;5.70;;;5.80;88.10;;;;;;4804692;29;20053;-73
2022/03/02 03:18:44;;;;;;;10.32;5.95;;;5.80;88.10;;;;;;4803438;29;20417;-73
2022/03/02 03:21:12;;;;;;;10.85;5.90;;;5.80;88.20;;;;;;4804132;29;20058;-72
2022/03/02 03:23:40;;;;;;;11.65;5.93;;;5.80;88.10;;;;;;4801442;29;20058;-72
2022/03/02 03:26:07;;;;;;;11.57;5.03;;;5.80;88.20;;;;;;4802918;29;20077;-72
2022/03/02 03:28:35;;;;;;;7.28;5.22;;;5.90;88.20;;;;;;4803744;29;20069;-73
2022/03/02 03:31:03;;;;;;;11.13;5.30;;;5.80;88.20;;;;;;4804920;29;20039;-73
2022/03/02 03:33:30;;;;;;;14.32;5.63;;;5.90;88.30;;;;;;4804421;29;20067;-74
2022/03/02 03:35:58;;;;;;;11.50;5.68;;;5.90;88.30;;;;;;4803997;29;20054;-73
2022/03/02 03:38:26;;;;;;;8.82;5.03;;;5.90;88.30;;;;;;4803604;29;20528;-72
2022/03/02 03:40:54;;;;;;;10.10;5.70;;;5.90;88.30;;;;;;4801983;29;20066;-73
2022/03/02 03:43:21;;;;;;;9.90;5.00;;;5.90;88.30;;;;;;4796825;29;20417;-72
2022/03/02 03:45:49;;;;;;;7.82;5.13;;;5.90;88.30;;;;;;4804040;29;20050;-72
2022/03/02 03:48:18;;;;;;;8.82;5.30;;;6.00;88.30;;;;;;4802939;29;20502;-72
2022/03/02 03:50:45;;;;;;;12.10;5.40;;;6.00;88.30;;;;;;4804073;29;20059;-73
2022/03/02 03:53:13;;;;;;;7.38;4.68;;;5.90;88.40;;;;;;4803229;29;20070;-73
2022/03/02 03:55:41;;;;;;;9.50;4.85;;;5.90;88.40;;;;;;4799817;29;20051;-73
2022/03/02 03:58:08;;;;;;;7.85;4.57;;;6.00;88.40;;;;;;4801869;29;20051;-73
2022/03/02 04:00:36;;;;;;;10.57;4.80;;;6.00;88.40;;;;;;4804239;29;20058;-73
2022/03/02 04:03:05;;;;;;;8.57;4.85;;;5.90;88.40;;;;;;4804234;29;20055;-73
2022/03/02 04:05:33;;;;;;;6.82;4.55;;;5.90;88.50;;;;;;4804603;29;20140;-73
2022/03/02 04:08:00;;;;;;;8.68;4.40;;;6.00;88.50;;;;;;4803760;29;20053;-73
2022/03/02 04:10:28;;;;;;;7.18;4.75;;;6.00;88.50;;;;;;4803496;29;20054;-72
2022/03/02 04:12:56;;;;;;;9.48;4.47;;;6.00;88.50;;;;;;4804381;29;20055;-72
2022/03/02 04:15:23;;;;;;;7.45;4.20;;;6.00;88.50;;;;;;4804124;29;20502;-71
2022/03/02 04:17:51;;;;;;;8.18;4.75;;;6.00;88.50;;;;;;4807689;29;20047;-72
2022/03/02 04:20:18;;;;;;;8.38;4.43;;;6.00;88.60;;;;;;4807468;29;20051;-72
2022/03/02 04:22:46;;;;;;;7.57;4.65;;;6.00;88.50;;;;;;4807742;29;20062;-72
2022/03/02 04:25:13;;;;;;;11.18;5.40;;;6.00;88.50;;;;;;4806407;29;20051;-72
2022/03/02 04:27:41;;;;;;;11.45;5.25;;;6.00;88.60;;;;;;4807373;29;20505;-72
2022/03/02 04:30:10;;;;;;;8.93;5.22;;;6.00;88.60;;;;;;4807422;29;20417;-71
2022/03/02 04:32:38;;;;;;;10.07;5.30;;;6.00;88.60;;;;;;4807243;29;20069;-73
2022/03/02 04:35:09;;;;;;;9.80;5.43;;;6.00;88.60;;;;;;4802009;29;20046;-72
2022/03/02 04:37:38;;;;;;;9.38;5.50;;;6.00;88.60;;;;;;4807508;29;20058;-72
2022/03/02 04:40:08;;;;;;;9.68;5.70;;;6.00;88.60;;;;;;4805988;29;20067;-72
2022/03/02 04:42:36;;;;;;;12.45;5.78;;;6.00;88.60;;;;;;4806996;29;20074;-72
2022/03/02 04:45:05;;;;;;;9.63;5.47;;;6.10;88.60;;;;;;4805495;29;20043;-72
2022/03/02 04:47:32;;;;;;;7.95;5.25;;;6.10;88.60;;;;;;4807043;29;20062;-72
2022/03/02 04:50:01;;;;;;;10.00;5.35;;;6.00;88.70;;;;;;4807612;29;20050;-72
2022/03/02 04:52:28;;;;;;;13.27;6.30;;;6.00;88.70;;;;;;4805107;29;20059;-72
2022/03/02 04:55:05;;;;;;;9.82;5.75;;;6.00;88.70;;;;;;4805278;29;20066;-72
2022/03/02 04:57:42;;;;;;;9.63;5.75;;;6.00;88.70;;;;;;4806741;29;20065;-73
2022/03/02 05:00:19;;;;;;;11.63;5.70;;;6.10;88.70;;;;;;4820278;29;20057;-72
2022/03/02 05:02:47;;;;;;;10.05;5.80;;;6.10;88.70;;;;;;4806828;29;20051;-72
2022/03/02 05:05:17;;;;;;;13.18;6.40;;;6.10;88.80;;;;;;4805073;29;20047;-72
2022/03/02 05:07:45;;;;;;;10.85;6.53;;;6.10;88.70;;;;;;4806930;29;20634;-73
2022/03/02 05:10:13;;;;;;;12.23;6.93;;;6.10;88.70;;;;;;4806455;29;20059;-72
2022/03/02 05:12:41;;;;;;;11.95;6.70;;;6.10;88.70;;;;;;4805601;29;20458;-72
2022/03/02 05:15:11;;;;;;;12.40;6.45;;;6.10;88.70;;;;;;4806526;29;20054;-73
2022/03/02 05:17:39;;;;;;;9.93;6.20;;;6.10;88.70;;;;;;4806543;29;20069;-73
2022/03/02 05:20:09;;;;;;;11.25;6.25;;;6.10;88.70;;;;;;4806213;29;20057;-72
2022/03/02 05:22:37;;;;;;;10.35;6.18;;;6.10;88.70;;;;;;4806292;29;20418;-72
2022/03/02 05:25:07;;;;;;;11.75;6.65;;;6.10;88.80;;;;;;4806295;29;20047;-72
2022/03/02 05:27:35;;;;;;;11.85;6.63;;;6.10;88.80;;;;;;4805766;29;20051;-72
2022/03/02 05:30:04;;;;;;;12.30;6.70;;;6.10;88.80;;;;;;4805537;29;20054;-72
2022/03/02 05:32:32;;;;;;;10.85;6.43;;;6.00;88.80;;;;;;4806786;29;20062;-72
2022/03/02 05:34:59;;;;;;;15.20;7.28;;;6.10;88.80;;;;;;4805683;29;20065;-72
2022/03/02 05:37:27;;;;;;;15.48;7.80;;;6.00;88.80;;;;;;4805945;29;20059;-72
2022/03/02 05:39:54;;;;;;;10.77;7.32;;;6.00;88.80;;;;;;4801752;29;20066;-73
2022/03/02 05:42:22;;;;;;;19.42;8.45;;;6.10;88.90;;;;;;4778860;29;20047;-73
2022/03/02 05:44:50;;;;;;;14.88;8.43;;;6.00;88.90;;;;;;4805873;29;20409;-73
2022/03/02 05:47:17;;;;;;;16.90;7.72;;;6.10;88.90;;;;;;4804055;29;20069;-74
2022/03/02 05:49:45;;;;;;;18.95;8.98;;;6.10;88.90;;;;;;4805812;29;20054;-73
2022/03/02 05:52:13;;;;;;;17.85;9.00;;;6.00;88.90;;;;;;4805090;29;20055;-73
2022/03/02 05:54:40;;;;;;;17.23;8.65;;;6.10;89.00;;;;;;4805266;29;20070;-72
2022/03/02 05:57:08;;;;;;;23.50;10.65;;;6.00;89.00;;;;;;4806171;29;20042;-72
2022/03/02 05:59:36;;;;;;;20.25;10.18;;;6.00;89.10;;;;;;4805896;29;20516;-72
2022/03/02 06:02:04;;;;;;;23.17;11.00;;;6.00;89.10;;;;;;4800928;29;20051;-72
2022/03/02 06:04:33;;;;;;;24.27;11.80;;;6.00;89.10;;;;;;4806182;29;20513;-72
2022/03/02 06:07:01;;;;;;;23.92;11.13;;;6.00;89.10;;;;;;4805834;29;20047;-72
2022/03/02 06:09:29;;;;;;;26.33;12.10;;;6.00;89.20;;;;;;4805133;29;20506;-72
2022/03/02 06:11:56;;;;;;;28.70;12.27;;;6.00;89.20;;;;;;4791996;29;20051;-72
2022/03/02 06:14:25;;;;;;;33.42;12.75;;;6.00;89.20;;;;;;4805739;29;20050;-72
2022/03/02 06:16:52;;;;;;;32.35;13.35;;;6.00;89.20;;;;;;4805134;29;20646;-72
2022/03/02 06:19:20;;;;;;;34.28;14.00;;;6.00;89.20;;;;;;4804363;29;20157;-72
2022/03/02 06:21:49;;;;;;;42.85;15.77;;;6.00;89.30;;;;;;4805460;29;20051;-72
2022/03/02 06:24:17;;;;;;;43.13;16.50;;;6.00;89.30;;;;;;4805515;29;20050;-73
2022/03/02 06:26:44;;;;;;;41.38;16.42;;;6.00;89.30;;;;;;4803363;29;20062;-73
2022/03/02 06:29:12;;;;;;;42.88;18.17;;;6.00;89.40;;;;;;4803653;29;20050;-73
2022/03/02 06:31:40;;;;;;;52.15;19.20;;;6.00;89.40;;;;;;4803807;29;20051;-73
2022/03/02 06:34:08;;;;;;;52.65;20.50;;;6.00;89.40;;;;;;4804898;29;20058;-73
2022/03/02 06:36:35;;;;;;;57.08;19.83;;;6.00;89.50;;;;;;4805278;29;20051;-73
2022/03/02 06:39:04;;;;;;;61.30;22.65;;;6.00;89.50;;;;;;4803840;29;20050;-73
2022/03/02 06:42:03;;;;;;;67.95;22.45;;;6.00;89.60;;;;;;4804170;29;20059;-73
2022/03/02 06:44:42;;;;;;;50.97;17.27;;;6.00;89.60;;;;;;4804803;29;20054;-73
2022/03/02 06:47:11;;;;;;;71.95;23.77;;;6.00;89.70;;;;;;4792573;29;20058;-73
2022/03/02 06:50:04;;;;;;;74.72;24.33;;;6.00;89.80;;;;;;4803928;29;20379;-73
2022/03/02 06:52:34;;;;;;;74.55;24.83;;;6.00;89.90;;;;;;4799803;29;20051;-71
2022/03/02 06:55:06;;;;;;;87.38;28.30;;;6.00;89.90;;;;;;4818246;29;20051;-71
2022/03/02 06:57:34;;;;;;;86.55;27.48;;;5.90;89.90;;;;;;4798538;29;20086;-73
2022/03/02 07:00:07;;;;;;;80.35;26.40;;;6.00;90.00;;;;;;4799334;29;20058;-72
2022/03/02 07:02:43;;;;;;;97.13;29.83;;;6.00;90.10;;;;;;4803909;29;20051;-72
2022/03/02 07:05:11;;;;;;;99.43;30.38;;;6.00;90.10;;;;;;4803656;29;20405;-72
2022/03/02 07:07:39;;;;;;;95.32;29.85;;;6.00;90.10;;;;;;4804666;29;20062;-72
2022/03/02 07:10:08;;;;;;;92.28;28.58;;;6.00;90.10;;;;;;4804739;29;20066;-73
2022/03/02 07:12:37;;;;;;;105.93;32.08;;;6.00;90.10;;;;;;4804949;29;20061;-73
2022/03/02 07:15:06;;;;;;;99.03;30.95;;;6.00;90.10;;;;;;4804185;29;20051;-73
2022/03/02 07:17:34;;;;;;;95.28;29.20;;;6.00;90.20;;;;;;4803442;29;20576;-73
2022/03/02 07:20:07;;;;;;;102.18;29.85;;;6.00;90.20;;;;;;4804538;29;20520;-73
2022/03/02 07:22:37;;;;;;;91.28;29.98;;;6.00;90.20;;;;;;4804743;29;20043;-73
2022/03/02 07:25:06;;;;;;;82.55;25.77;;;6.00;90.20;;;;;;4802418;29;20042;-73
2022/03/02 07:27:39;;;;;;;86.43;27.75;;;6.00;90.20;;;;;;4804572;29;20063;-73
2022/03/02 07:30:08;;;;;;;100.38;30.85;;;6.00;90.30;;;;;;4802655;29;20062;-73
2022/03/02 07:32:41;;;;;;;86.05;27.98;;;6.00;90.20;;;;;;4804540;29;20051;-73
2022/03/02 07:35:09;;;;;;;93.35;29.60;;;6.00;90.20;;;;;;4818146;29;20406;-73
2022/03/02 07:37:37;;;;;;;95.80;29.30;;;6.00;90.30;;;;;;4804073;29;20051;-74
2022/03/02 07:40:07;;;;;;;80.53;24.80;;;6.00;90.20;;;;;;4804275;29;20043;-74
2022/03/02 07:42:34;;;;;;;68.25;24.80;;;6.10;90.30;;;;;;4803881;29;20059;-73
2022/03/02 07:45:03;;;;;;;63.13;24.05;;;6.10;90.30;;;;;;4803574;29;20489;-73
2022/03/02 07:47:31;;;;;;;59.92;22.58;;;6.10;90.30;;;;;;4800837;29;20051;-73
2022/03/02 07:49:58;;;;;;;59.88;22.65;;;6.10;90.30;;;;;;4802319;29;20062;-73
2022/03/02 07:52:29;;;;;;;58.45;21.88;;;6.10;90.20;;;;;;4807366;29;20062;-73
2022/03/02 07:55:02;;;;;;;54.03;20.20;;;6.10;90.20;;;;;;4807389;29;20920;-73
2022/03/02 07:57:30;;;;;;;53.83;20.58;;;6.10;90.20;;;;;;4807633;29;20070;-72
2022/03/02 07:59:58;;;;;;;50.35;19.10;;;6.20;90.20;;;;;;4807125;29;20058;-73
2022/03/02 08:02:30;;;;;;;48.90;20.58;;;6.20;90.20;;;;;;4785277;29;20051;-73
2022/03/02 08:05:01;;;;;;;52.05;19.13;;;6.20;90.20;;;;;;4806687;29;20055;-73
2022/03/02 08:07:29;;;;;;;56.13;20.50;;;6.20;90.20;;;;;;4807432;29;20054;-73
2022/03/02 08:09:57;;;;;;;58.45;20.92;;;6.20;90.20;;;;;;4806190;29;20063;-72
2022/03/02 08:12:25;;;;;;;57.97;21.95;;;6.20;90.10;;;;;;4807509;29;20041;-73
2022/03/02 08:14:53;;;;;;;65.30;21.77;;;6.20;90.10;;;;;;4807648;29;20113;-73
2022/03/02 08:17:21;;;;;;;72.22;24.45;;;6.20;90.10;;;;;;4806288;29;20069;-73
2022/03/02 08:19:49;;;;;;;60.60;22.55;;;6.20;90.10;;;;;;4806120;29;20058;-73
2022/03/02 08:22:20;;;;;;;65.63;23.20;;;6.20;90.20;;;;;;4807147;29;20055;-73
2022/03/02 08:25:01;;;;;;;63.67;23.95;;;6.20;90.20;;;;;;4806821;29;20570;-73
2022/03/02 08:27:30;;;;;;;63.38;23.63;;;6.20;90.20;;;;;;4804703;29;20047;-73
2022/03/02 08:30:01;;;;;;;59.60;22.67;;;6.20;90.20;;;;;;4806448;29;20646;-73
2022/03/02 08:32:33;;;;;;;62.88;23.60;;;6.20;90.20;;;;;;4805818;29;20048;-73
2022/03/02 08:35:01;;;;;;;66.03;24.45;;;6.20;90.20;;;;;;4802205;29;20409;-72
2022/03/02 08:37:30;;;;;;;54.38;22.35;;;6.30;90.20;;;;;;4806851;29;20461;-73
2022/03/02 08:39:59;;;;;;;58.08;23.15;;;6.30;90.20;;;;;;4805606;29;20057;-73
2022/03/02 08:42:27;;;;;;;56.13;23.40;;;6.30;90.20;;;;;;4805485;29;20058;-72
2022/03/02 08:44:55;;;;;;;57.40;24.30;;;6.30;90.20;;;;;;4819386;29;20062;-73
2022/03/02 08:47:23;;;;;;;53.67;21.75;;;6.30;90.20;;;;;;4797366;29;20405;-73
2022/03/02 08:49:54;;;;;;;57.97;24.02;;;6.30;90.20;;;;;;4806719;29;20063;-73
2022/03/02 08:52:31;;;;;;;56.90;24.08;;;6.30;90.20;;;;;;4806798;29;20066;-73
2022/03/02 08:55:06;;;;;;;60.22;24.45;;;6.30;90.20;;;;;;4806862;29;20405;-73
2022/03/02 08:57:34;;;;;;;53.25;23.67;;;6.30;90.20;;;;;;4807188;29;20062;-73
2022/03/02 09:00:07;;;;;;;55.50;24.58;;;6.40;90.20;;;;;;4821029;29;20061;-74
2022/03/02 09:02:36;;;;;;;53.90;22.60;;;6.40;90.20;;;;;;4804763;29;20079;-73
2022/03/02 09:05:06;;;;;;;56.58;26.02;;;6.40;90.20;;;;;;4805961;29;20058;-73
2022/03/02 09:07:34;;;;;;;62.15;27.33;;;6.50;90.10;;;;;;4805922;29;20051;-73
2022/03/02 09:10:04;;;;;;;57.10;26.88;;;6.40;90.10;;;;;;4806531;29;20065;-73
2022/03/02 09:12:32;;;;;;;67.78;29.33;;;6.50;90.10;;;;;;4807111;29;20406;-73
2022/03/02 09:15:00;;;;;;;61.45;27.45;;;6.50;90.00;;;;;;4807019;29;20055;-74
2022/03/02 09:17:29;;;;;;;77.15;31.98;;;6.50;90.00;;;;;;4805111;29;20059;-74
2022/03/02 09:19:57;;;;;;;76.72;32.03;;;6.60;90.00;;;;;;4806095;29;20047;-74
2022/03/02 09:22:26;;;;;;;78.63;32.45;;;6.60;90.00;;;;;;4806709;29;20054;-74
2022/03/02 09:24:56;;;;;;;80.25;33.65;;;6.60;90.10;;;;;;4804685;29;20047;-74
2022/03/02 09:27:27;;;;;;;75.93;31.83;;;6.60;90.00;;;;;;4817676;29;20051;-74
2022/03/02 09:29:59;;;;;;;73.75;32.63;;;6.60;90.00;;;;;;4806027;29;20428;-74
2022/03/02 09:32:30;;;;;;;64.68;28.20;;;6.60;90.00;;;;;;4805375;29;20051;-74
2022/03/02 09:34:59;;;;;;;72.70;32.05;;;6.60;90.00;;;;;;4805931;29;20062;-74
2022/03/02 09:37:31;;;;;;;59.13;28.30;;;6.60;90.00;;;;;;4806207;29;20622;-73
2022/03/02 09:40:03;;;;;;;54.05;25.95;;;6.60;90.00;;;;;;4805959;29;20054;-73
2022/03/02 09:42:45;;;;;;;70.00;28.63;;;6.60;90.00;;;;;;4806529;29;20061;-74
2022/03/02 09:45:14;;;;;;;56.58;27.33;;;6.60;90.00;;;;;;4805936;29;20047;-74
2022/03/02 09:47:45;;;;;;;66.25;29.13;;;6.60;90.00;;;;;;4805252;29;20059;-74
2022/03/02 09:50:14;;;;;;;64.30;29.25;;;6.60;90.00;;;;;;4805620;29;20039;-73
2022/03/02 09:52:45;;;;;;;64.50;28.20;;;6.60;90.00;;;;;;4806252;29;20054;-74
2022/03/02 09:55:16;;;;;;;54.03;26.15;;;6.60;90.00;;;;;;4805719;29;20050;-74
2022/03/02 09:57:46;;;;;;;56.60;27.10;;;6.60;90.00;;;;;;4805444;29;20059;-74
2022/03/02 10:00:17;;;;;;;55.10;25.95;;;6.60;90.00;;;;;;4805477;29;20058;-73
2022/03/02 10:02:55;;;;;;;53.67;25.75;;;6.60;90.00;;;;;;4806335;29;20409;-74
2022/03/02 10:05:31;;;;;;;50.28;25.05;;;6.70;90.00;;;;;;4805462;29;20047;-74
2022/03/02 10:08:03;;;;;;;46.13;21.90;;;6.70;90.00;;;;;;4804090;29;20061;-74
2022/03/02 10:10:33;;;;;;;51.15;23.92;;;6.70;90.00;;;;;;4819056;29;20050;-74
2022/03/02 10:13:04;;;;;;;46.25;23.98;;;6.70;90.00;;;;;;4805557;29;20065;-74
2022/03/02 10:15:33;;;;;;;51.13;25.30;;;6.80;89.90;;;;;;4805109;29;20051;-74
2022/03/02 10:18:07;;;;;;;49.65;24.67;;;6.80;89.90;;;;;;4805302;29;20050;-74
2022/03/02 10:20:38;;;;;;;45.78;23.20;;;6.80;89.90;;;;;;4805652;29;20042;-74
2022/03/02 10:23:41;;;;;;;39.95;20.33;;;6.80;89.80;;;;;;4805473;29;20061;-74
2022/03/02 10:26:11;;;;;;;49.40;23.15;;;6.80;89.80;;;;;;4805128;29;20059;-73
2022/03/02 10:28:48;;;;;;;47.80;23.20;;;6.80;89.70;;;;;;4804875;29;20417;-74
2022/03/02 10:31:44;;;;;;;43.63;22.73;;;6.80;89.70;;;;;;4803908;29;20406;-74
2022/03/02 10:34:34;;;;;;;48.30;24.10;;;6.80;89.70;;;;;;4805012;29;20512;-74
2022/03/02 10:37:23;;;;;;;52.38;24.40;;;6.80;89.70;;;;;;4804972;29;20055;-73
2022/03/02 10:39:56;;;;;;;54.60;26.15;;;6.80;89.70;;;;;;4816418;29;20158;-73
2022/03/02 10:42:28;;;;;;;53.60;24.95;;;6.80;89.80;;;;;;4819149;29;20101;-73
2022/03/02 10:45:17;;;;;;;53.85;27.10;;;6.80;89.80;;;;;;4802772;29;20046;-73
2022/03/02 10:48:07;;;;;;;56.08;27.65;;;6.80;89.80;;;;;;4803471;29;20497;-73
2022/03/02 10:50:36;;;;;;;47.65;23.80;;;6.80;89.80;;;;;;4818009;29;20053;-73
2022/03/02 10:53:07;;;;;;;58.63;27.48;;;6.80;89.80;;;;;;4804667;29;20106;-74
2022/03/02 10:55:36;;;;;;;56.57;26.07;;;6.80;89.80;;;;;;4809512;29;20100;-73
2022/03/02 10:58:06;;;;;;;55.95;27.25;;;6.80;89.80;;;;;;4804852;29;20055;-74
2022/03/02 11:00:34;;;;;;;52.60;26.63;;;6.80;89.80;;;;;;4805347;29;20493;-74
2022/03/02 11:03:04;;;;;;;50.97;26.00;;;6.80;89.80;;;;;;4804992;29;20397;-74
2022/03/02 11:05:33;;;;;;;50.70;25.50;;;6.80;89.80;;;;;;4805173;29;20055;-73
2022/03/02 11:08:02;;;;;;;55.47;26.75;;;6.80;89.80;;;;;;4804568;29;20051;-72
2022/03/02 11:10:33;;;;;;;50.17;25.77;;;6.80;89.80;;;;;;4795077;29;20047;-73
2022/03/02 11:13:13;;;;;;;45.63;23.45;;;6.80;89.80;;;;;;4805254;29;20043;-73
2022/03/02 11:15:59;;;;;;;46.97;24.10;;;6.80;89.80;;;;;;4804837;29;20046;-73
2022/03/02 11:18:33;;;;;;;43.28;23.67;;;6.80;89.80;;;;;;4804092;29;20059;-73
2022/03/02 11:21:07;;;;;;;42.03;23.00;;;6.80;89.80;;;;;;4798368;29;20058;-73
2022/03/02 11:23:52;;;;;;;46.22;23.40;;;6.80;89.80;;;;;;4794460;29;20051;-73
2022/03/02 11:26:29;;;;;;;48.72;25.08;;;6.80;89.80;;;;;;4795232;29;20066;-75
2022/03/02 11:28:59;;;;;;;46.85;25.17;;;6.80;89.80;;;;;;4804799;29;20074;-75
2022/03/02 11:31:31;;;;;;;46.83;24.80;;;6.90;89.80;;;;;;4803324;29;20050;-73
2022/03/02 11:34:43;;;;;;;49.03;25.23;;;6.80;89.80;;;;;;4787089;30;20047;-73
2022/03/02 11:37:14;;;;;;;57.45;27.30;;;6.80;89.80;;;;;;4760426;30;20051;-73
2022/03/02 11:39:43;;;;;;;52.38;26.25;;;6.80;89.80;;;;;;4766626;30;20052;-73
2022/03/02 11:42:11;;;;;;;55.88;26.45;;;6.90;89.80;;;;;;4766707;30;20060;-74
2022/03/02 11:44:42;;;;;;;55.22;27.30;;;6.90;89.80;;;;;;4766666;30;20499;-72
2022/03/02 11:47:20;;;;;;;53.78;26.38;;;6.90;89.80;;;;;;4766520;30;20060;-73
2022/03/02 11:49:51;;;;;;;52.08;26.30;;;6.90;89.80;;;;;;4766081;30;20054;-73
2022/03/02 11:52:24;;;;;;;56.42;27.65;;;6.90;89.80;;;;;;4766030;30;20613;-73
2022/03/02 11:54:58;;;;;;;52.35;26.95;;;6.90;89.70;;;;;;4766349;30;20048;-74
2022/03/02 11:57:28;;;;;;;54.53;28.92;;;6.90;89.70;;;;;;4765045;30;20051;-74
2022/03/02 12:00:06;;;;;;;57.20;27.38;;;6.90;89.80;;;;;;4766480;30;20562;-73
2022/03/02 12:03:00;;;;;;;56.17;28.15;;;6.90;89.70;;;;;;4765978;30;20423;-73
2022/03/02 12:05:32;;;;;;;50.95;26.88;;;6.90;89.70;;;;;;4747917;30;20105;-73
2022/03/02 12:08:06;;;;;;;50.90;27.65;;;6.90;89.70;;;;;;4768209;29;20091;-73
2022/03/02 12:10:40;;;;;;;54.13;27.88;;;6.90;89.70;;;;;;4786479;30;20051;-73
2022/03/02 12:13:08;;;;;;;61.13;28.98;;;6.90;89.60;;;;;;4800275;29;20054;-73
2022/03/02 12:15:44;;;;;;;53.90;28.50;;;6.90;89.60;;;;;;4812091;29;20490;-72
2022/03/02 12:18:13;;;;;;;59.75;29.38;;;7.00;89.60;;;;;;4803433;29;20131;-74
2022/03/02 12:20:47;;;;;;;54.08;29.17;;;7.00;89.60;;;;;;4804430;29;20058;-72
2022/03/02 12:23:26;;;;;;;52.15;27.73;;;7.00;89.60;;;;;;4804080;29;20066;-72
2022/03/02 12:25:55;;;;;;;51.90;27.33;;;7.00;89.60;;;;;;4789310;29;20051;-71
2022/03/02 12:28:24;;;;;;;52.80;26.42;;;7.00;89.60;;;;;;4803880;29;20073;-72
2022/03/02 12:30:53;;;;;;;52.20;28.23;;;7.00;89.60;;;;;;4802250;29;20054;-72
2022/03/02 12:33:22;;;;;;;48.28;26.05;;;7.10;89.60;;;;;;4818052;29;20090;-73
2022/03/02 12:35:51;;;;;;;53.85;28.13;;;7.20;89.60;;;;;;4804071;29;20050;-72
2022/03/02 12:38:19;;;;;;;44.30;26.00;;;7.20;89.50;;;;;;4806698;29;20077;-73
2022/03/02 12:40:47;;;;;;;50.53;27.40;;;7.30;89.40;;;;;;4807759;29;20550;-73
2022/03/02 12:43:17;;;;;;;49.38;25.92;;;7.30;89.30;;;;;;4806543;29;20066;-74
2022/03/02 12:45:52;;;;;;;48.60;26.55;;;7.30;89.30;;;;;;4806423;29;20047;-73
2022/03/02 12:48:21;;;;;;;44.00;25.20;;;7.30;89.20;;;;;;4788014;29;20055;-73
2022/03/02 12:50:49;;;;;;;46.70;25.35;;;7.40;89.10;;;;;;4807035;29;20059;-74
2022/03/02 12:53:19;;;;;;;42.00;25.05;;;7.40;89.10;;;;;;4805775;29;20490;-74
2022/03/02 12:55:52;;;;;;;44.42;23.75;;;7.50;89.00;;;;;;4807444;29;20084;-74
2022/03/02 12:58:21;;;;;;;41.47;23.42;;;7.50;88.90;;;;;;4806466;29;20640;-74